createdAt,value
2023-05-04T00:00:19.954Z,4.55
2023-05-04T00:05:12.536Z,8.68
2023-05-04T00:10:04.914Z,6.47
2023-05-04T00:14:56.705Z,8.57
2023-05-04T00:19:48.310Z,6.25
2023-05-04T00:24:39.899Z,8.43
2023-05-04T00:29:31.604Z,8.70
2023-05-04T00:34:23.167Z,7.65
2023-05-04T00:39:14.820Z,10.57
2023-05-04T00:44:06.532Z,5.30
2023-05-04T00:48:59.805Z,9.07
2023-05-04T00:53:52.031Z,6.35
2023-05-04T00:58:43.842Z,4.57
2023-05-04T01:03:35.761Z,10.13
2023-05-04T01:08:42.595Z,6.30
2023-05-04T01:13:35.929Z,7.78
2023-05-04T01:18:27.481Z,8.07
2023-05-04T01:23:19.095Z,7.90
2023-05-04T01:28:19.360Z,10.82
2023-05-04T01:33:11.462Z,6.28
2023-05-04T01:38:04.101Z,5.43
2023-05-04T01:42:55.870Z,8.52
2023-05-04T01:47:48.150Z,10.60
2023-05-04T01:52:39.823Z,8.20
2023-05-04T01:57:31.409Z,9.15
2023-05-04T02:02:23.429Z,7.30
2023-05-04T02:07:15.037Z,7.55
2023-05-04T02:12:06.843Z,7.45
2023-05-04T02:16:58.375Z,9.75
2023-05-04T02:21:49.964Z,7.97
2023-05-04T02:26:41.535Z,6.97
2023-05-04T02:31:34.060Z,7.63
2023-05-04T02:36:25.776Z,6.78
2023-05-04T02:41:17.402Z,10.30
2023-05-04T02:46:09.014Z,10.38
2023-05-04T02:51:00.795Z,9.77
2023-05-04T02:55:52.371Z,10.82
2023-05-04T03:00:43.979Z,14.63
2023-05-04T03:05:35.685Z,8.90
2023-05-04T03:10:27.246Z,6.70
2023-05-04T03:15:18.815Z,15.20
2023-05-04T03:20:13.244Z,12.75
2023-05-04T03:25:05.319Z,8.60
2023-05-04T03:29:56.896Z,10.82
2023-05-04T03:34:48.462Z,10.68
2023-05-04T03:39:40.200Z,10.07
2023-05-04T03:44:31.824Z,10.13
2023-05-04T03:49:23.763Z,10.80
2023-05-04T03:54:15.371Z,12.13
2023-05-04T03:59:06.979Z,12.07
2023-05-04T04:03:58.842Z,15.00
2023-05-04T04:08:50.522Z,9.45
2023-05-04T04:13:42.135Z,12.85
2023-05-04T04:18:33.886Z,9.73
2023-05-04T04:23:25.617Z,11.10
2023-05-04T04:28:17.534Z,14.63
2023-05-04T04:33:10.305Z,15.32
2023-05-04T04:38:03.717Z,16.77
2023-05-04T04:42:56.375Z,11.70
2023-05-04T04:47:48.297Z,14.10
2023-05-04T04:52:41.454Z,13.25
2023-05-04T04:57:33.415Z,10.80
2023-05-04T05:02:25.073Z,11.10
2023-05-04T05:07:16.738Z,17.38
2023-05-04T05:12:08.335Z,18.38
2023-05-04T05:17:00.127Z,16.70
2023-05-04T05:21:53.099Z,14.23
2023-05-04T05:26:44.645Z,16.13
2023-05-04T05:31:36.300Z,20.25
2023-05-04T05:36:28.109Z,17.35
2023-05-04T05:41:19.777Z,19.58
2023-05-04T05:46:12.302Z,24.27
2023-05-04T05:51:04.206Z,18.55
2023-05-04T05:55:55.824Z,17.25
2023-05-04T06:00:48.187Z,15.20
2023-05-04T06:05:39.824Z,18.70
2023-05-04T06:10:31.903Z,13.43
2023-05-04T06:15:23.480Z,13.70
2023-05-04T06:20:15.572Z,13.93
2023-05-04T06:25:08.296Z,15.30
2023-05-04T06:30:00.070Z,16.98
2023-05-04T06:34:55.587Z,22.25
2023-05-04T06:39:47.327Z,23.48
2023-05-04T06:44:40.053Z,12.45
2023-05-04T06:49:32.452Z,17.92
2023-05-04T06:54:24.185Z,17.73
2023-05-04T06:59:16.964Z,13.40
2023-05-04T07:04:08.599Z,15.48
2023-05-04T07:09:00.730Z,15.63
2023-05-04T07:13:52.384Z,13.73
2023-05-04T07:18:44.017Z,16.23
2023-05-04T07:23:35.613Z,16.25
2023-05-04T07:28:27.202Z,13.77
2023-05-04T07:33:18.901Z,15.20
2023-05-04T07:38:10.581Z,13.93
2023-05-04T07:43:02.183Z,14.82
2023-05-04T07:47:53.728Z,18.30
2023-05-04T07:52:47.776Z,10.50
2023-05-04T07:57:39.925Z,12.82
2023-05-04T08:02:31.683Z,15.77
2023-05-04T08:07:23.445Z,14.70
2023-05-04T08:12:15.079Z,13.88
2023-05-04T08:17:06.621Z,14.48
2023-05-04T08:21:58.221Z,12.63
2023-05-04T08:27:00.012Z,16.63
2023-05-04T08:31:59.519Z,15.30
2023-05-04T08:36:52.727Z,13.10
2023-05-04T08:41:44.982Z,14.73
2023-05-04T08:46:37.814Z,16.02
2023-05-04T08:51:33.336Z,16.00
2023-05-04T08:56:25.765Z,13.13
2023-05-04T09:01:18.605Z,13.30
2023-05-04T09:06:11.560Z,13.07
2023-05-04T09:11:03.907Z,13.35
2023-05-04T09:15:56.001Z,13.25
2023-05-04T09:20:48.258Z,15.60
2023-05-04T09:26:06.349Z,17.05
2023-05-04T09:31:00.751Z,17.75
2023-05-04T09:35:52.512Z,15.93
2023-05-04T09:40:44.066Z,11.60
2023-05-04T09:45:42.871Z,14.50
2023-05-04T09:50:35.584Z,14.85
2023-05-04T09:55:28.549Z,15.20
2023-05-04T10:00:20.496Z,22.25
2023-05-04T10:05:17.817Z,14.07
2023-05-04T10:10:11.992Z,14.57
2023-05-04T10:15:10.494Z,12.68
2023-05-04T10:20:22.242Z,13.13
2023-05-04T10:25:32.090Z,11.77
2023-05-04T10:30:24.185Z,15.90
2023-05-04T10:35:18.758Z,14.15
2023-05-04T10:40:11.095Z,14.65
2023-05-04T10:45:03.305Z,17.77
2023-05-04T10:50:06.447Z,14.38
2023-05-04T10:55:00.838Z,15.63
2023-05-04T10:59:57.294Z,14.07
2023-05-04T11:04:59.638Z,16.48
2023-05-04T11:09:51.269Z,13.55
2023-05-04T11:14:43.506Z,11.75
2023-05-04T11:19:35.464Z,12.23
2023-05-04T11:24:27.229Z,11.73
2023-05-04T11:29:19.517Z,12.27
2023-05-04T11:34:19.747Z,13.45
2023-05-04T11:39:11.615Z,15.18
2023-05-04T11:44:04.409Z,17.85
2023-05-04T11:48:56.217Z,12.18
2023-05-04T11:53:47.879Z,16.63
2023-05-04T11:58:39.477Z,12.77
2023-05-04T12:03:52.259Z,16.70
2023-05-04T12:08:45.986Z,9.60
2023-05-04T12:13:38.089Z,12.13
2023-05-04T12:18:30.052Z,12.82
2023-05-04T12:23:22.072Z,10.45
2023-05-04T12:28:13.625Z,11.75
2023-05-04T12:33:05.877Z,13.80
2023-05-04T12:37:57.485Z,12.80
2023-05-04T12:42:49.300Z,10.55
2023-05-04T12:47:41.519Z,10.77
2023-05-04T12:52:33.120Z,11.50
2023-05-04T12:57:24.686Z,11.32
2023-05-04T13:02:16.243Z,15.68
2023-05-04T13:07:07.985Z,12.13
2023-05-04T13:11:59.655Z,11.82
2023-05-04T13:16:52.561Z,9.07
2023-05-04T13:21:44.207Z,13.50
2023-05-04T13:26:36.080Z,14.40
2023-05-04T13:31:27.713Z,15.93
2023-05-04T13:36:20.642Z,9.95
2023-05-04T13:41:12.332Z,9.75
2023-05-04T13:46:04.740Z,13.98
2023-05-04T13:50:56.838Z,10.82
2023-05-04T13:55:48.466Z,10.65
2023-05-04T14:00:40.302Z,12.85
2023-05-04T14:05:32.129Z,10.75
2023-05-04T14:10:23.805Z,14.00
2023-05-04T14:15:16.607Z,7.63
2023-05-04T14:20:08.961Z,18.30
2023-05-04T14:25:00.844Z,8.65
2023-05-04T14:29:52.633Z,11.45
2023-05-04T14:34:46.594Z,12.60
2023-05-04T14:39:39.490Z,11.85
2023-05-04T14:44:31.070Z,15.18
2023-05-04T14:49:35.979Z,12.65
2023-05-04T14:54:29.019Z,9.60
2023-05-04T14:59:20.569Z,12.90
2023-05-04T15:04:13.640Z,16.92
2023-05-04T15:09:05.258Z,11.73
2023-05-04T15:13:58.882Z,13.23
2023-05-04T15:18:50.425Z,12.90
2023-05-04T15:23:42.070Z,11.73
2023-05-04T15:28:33.879Z,12.30
2023-05-04T15:33:25.493Z,13.02
2023-05-04T15:38:18.167Z,15.38
2023-05-04T15:43:09.733Z,17.38
2023-05-04T15:48:01.361Z,12.23
2023-05-04T15:52:53.076Z,12.60
2023-05-04T15:57:44.780Z,17.10
2023-05-04T16:02:36.397Z,18.15
2023-05-04T16:07:28.357Z,13.90
2023-05-04T16:12:20.639Z,15.15
2023-05-04T16:17:12.549Z,17.00
2023-05-04T16:22:04.225Z,14.45
2023-05-04T16:26:56.093Z,16.48
2023-05-04T16:31:48.374Z,13.05
2023-05-04T16:36:40.072Z,12.25
2023-05-04T16:41:31.736Z,13.90
2023-05-04T16:46:23.575Z,13.52
2023-05-04T16:51:15.155Z,15.77
2023-05-04T16:56:07.518Z,19.00
2023-05-04T17:00:59.056Z,15.95
2023-05-04T17:05:51.216Z,17.95
2023-05-04T17:10:42.965Z,16.98
2023-05-04T17:15:34.637Z,17.58
2023-05-04T17:20:30.427Z,16.65
2023-05-04T17:25:22.060Z,13.23
2023-05-04T17:30:13.896Z,19.73
2023-05-04T17:35:20.216Z,17.35
2023-05-04T17:40:15.650Z,16.65
2023-05-04T17:45:07.716Z,13.05
2023-05-04T17:49:59.429Z,23.48
2023-05-04T17:54:52.782Z,12.90
2023-05-04T17:59:44.404Z,13.38
2023-05-04T18:04:37.570Z,14.27
2023-05-04T18:09:29.396Z,11.73
2023-05-04T18:14:21.165Z,13.73
2023-05-04T18:19:12.735Z,9.10
2023-05-04T18:24:04.776Z,16.85
2023-05-04T18:29:04.266Z,10.43
2023-05-04T18:34:04.102Z,11.90
2023-05-04T18:38:58.658Z,14.02
2023-05-04T18:43:50.383Z,14.27
2023-05-04T18:48:41.953Z,16.75
2023-05-04T18:53:33.532Z,16.77
2023-05-04T18:58:25.103Z,10.77
2023-05-04T19:03:16.898Z,14.07
2023-05-04T19:08:08.504Z,16.02
2023-05-04T19:13:01.356Z,16.13
2023-05-04T19:17:53.169Z,15.52
2023-05-04T19:22:44.780Z,19.00
2023-05-04T19:27:36.574Z,14.85
2023-05-04T19:32:28.725Z,16.25
2023-05-04T19:37:20.672Z,16.98
2023-05-04T19:42:12.344Z,15.65
2023-05-04T19:47:04.038Z,12.07
2023-05-04T19:51:55.732Z,17.08
2023-05-04T19:56:47.279Z,18.73
2023-05-04T20:01:38.863Z,14.85
2023-05-04T20:06:30.451Z,16.02
2023-05-04T20:11:22.097Z,23.20
2023-05-04T20:16:13.702Z,15.57
2023-05-04T20:21:05.481Z,17.85
2023-05-04T20:25:57.223Z,15.35
2023-05-04T20:30:48.958Z,19.80
2023-05-04T20:35:41.579Z,18.42
2023-05-04T20:40:33.377Z,18.85
2023-05-04T20:45:24.954Z,20.27
2023-05-04T20:50:20.414Z,26.08
2023-05-04T20:55:12.083Z,19.67
2023-05-04T21:00:04.227Z,21.13
2023-05-04T21:04:55.843Z,17.83
2023-05-04T21:09:47.434Z,23.58
2023-05-04T21:14:38.973Z,19.33
2023-05-04T21:19:30.860Z,22.17
2023-05-04T21:24:23.128Z,22.52
2023-05-04T21:29:15.029Z,22.05
2023-05-04T21:34:07.315Z,18.80
2023-05-04T21:38:59.167Z,22.05
2023-05-04T21:43:51.271Z,20.55
2023-05-04T21:48:43.180Z,17.40
2023-05-04T21:53:34.765Z,15.70
2023-05-04T21:58:26.567Z,18.00
2023-05-04T22:03:18.141Z,12.95
2023-05-04T22:08:09.893Z,10.70
2023-05-04T22:13:01.521Z,12.07
2023-05-04T22:17:53.203Z,8.50
2023-05-04T22:22:44.804Z,13.73
2023-05-04T22:27:36.580Z,8.23
2023-05-04T22:32:28.129Z,7.07
2023-05-04T22:37:19.723Z,6.38
2023-05-04T22:42:11.305Z,4.93
2023-05-04T22:47:02.889Z,4.90
2023-05-04T22:51:54.539Z,3.00
2023-05-04T22:56:46.122Z,3.17
2023-05-04T23:01:42.724Z,2.17
2023-05-04T23:06:34.672Z,2.92
2023-05-04T23:11:26.238Z,1.73
2023-05-04T23:16:18.139Z,2.30
2023-05-04T23:21:09.789Z,3.65
2023-05-04T23:26:01.343Z,1.70
2023-05-04T23:30:54.393Z,2.85
2023-05-04T23:35:46.012Z,1.40
2023-05-04T23:40:37.593Z,1.25
2023-05-04T23:45:29.341Z,1.35
2023-05-04T23:50:21.056Z,1.58
2023-05-04T23:55:12.997Z,3.17
